sensor_id;sensor_type;location;lat;lon;timestamp;temperature;humidity
67899;DHT22;54699;51.796;10.956;2023-02-11T00:01:24;16.10;48.30
67899;DHT22;54699;51.796;10.956;2023-02-11T00:03:53;16.20;48.50
67899;DHT22;54699;51.796;10.956;2023-02-11T00:06:20;16.20;48.20
67899;DHT22;54699;51.796;10.956;2023-02-11T00:08:48;16.10;48.40
67899;DHT22;54699;51.796;10.956;2023-02-11T00:11:15;16.10;48.30
67899;DHT22;54699;51.796;10.956;2023-02-11T00:13:45;16.10;48.30
67899;DHT22;54699;51.796;10.956;2023-02-11T00:16:13;16.10;48.30
67899;DHT22;54699;51.796;10.956;2023-02-11T00:18:42;16.10;48.20
67899;DHT22;54699;51.796;10.956;2023-02-11T00:21:10;16.10;48.40
67899;DHT22;54699;51.796;10.956;2023-02-11T00:23:38;16.10;48.30
67899;DHT22;54699;51.796;10.956;2023-02-11T00:26:10;16.10;48.20
67899;DHT22;54699;51.796;10.956;2023-02-11T00:28:38;16.10;48.30
67899;DHT22;54699;51.796;10.956;2023-02-11T00:31:06;16.10;48.20
67899;DHT22;54699;51.796;10.956;2023-02-11T00:33:33;16.10;48.20
67899;DHT22;54699;51.796;10.956;2023-02-11T00:36:02;16.10;48.20
67899;DHT22;54699;51.796;10.956;2023-02-11T00:38:29;16.10;48.20
67899;DHT22;54699;51.796;10.956;2023-02-11T00:40:56;16.20;48.10
67899;DHT22;54699;51.796;10.956;2023-02-11T00:43:23;16.10;48.20
67899;DHT22;54699;51.796;10.956;2023-02-11T00:45:50;16.10;48.20
67899;DHT22;54699;51.796;10.956;2023-02-11T00:48:18;16.10;48.10
67899;DHT22;54699;51.796;10.956;2023-02-11T00:50:44;16.10;48.20
67899;DHT22;54699;51.796;10.956;2023-02-11T00:53:11;16.10;48.20
67899;DHT22;54699;51.796;10.956;2023-02-11T00:55:38;16.10;48.10
67899;DHT22;54699;51.796;10.956;2023-02-11T00:58:05;16.10;48.20
67899;DHT22;54699;51.796;10.956;2023-02-11T01:00:31;16.10;48.20
67899;DHT22;54699;51.796;10.956;2023-02-11T01:02:58;16.10;49.10
67899;DHT22;54699;51.796;10.956;2023-02-11T01:05:26;16.10;48.30
67899;DHT22;54699;51.796;10.956;2023-02-11T01:07:53;16.10;48.40
67899;DHT22;54699;51.796;10.956;2023-02-11T01:10:19;16.10;48.30
67899;DHT22;54699;51.796;10.956;2023-02-11T01:12:46;16.10;48.20
67899;DHT22;54699;51.796;10.956;2023-02-11T01:15:14;16.10;48.20
67899;DHT22;54699;51.796;10.956;2023-02-11T01:17:41;16.10;48.40
67899;DHT22;54699;51.796;10.956;2023-02-11T01:20:11;16.10;48.30
67899;DHT22;54699;51.796;10.956;2023-02-11T01:22:42;16.10;48.20
67899;DHT22;54699;51.796;10.956;2023-02-11T01:25:09;16.10;48.10
67899;DHT22;54699;51.796;10.956;2023-02-11T01:27:35;16.10;48.20
67899;DHT22;54699;51.796;10.956;2023-02-11T01:30:03;16.10;48.20
67899;DHT22;54699;51.796;10.956;2023-02-11T01:32:31;16.10;48.20
67899;DHT22;54699;51.796;10.956;2023-02-11T01:34:58;16.10;48.10
67899;DHT22;54699;51.796;10.956;2023-02-11T01:37:25;16.10;48.20
67899;DHT22;54699;51.796;10.956;2023-02-11T01:39:53;16.10;48.10
67899;DHT22;54699;51.796;10.956;2023-02-11T01:42:20;16.00;48.20
67899;DHT22;54699;51.796;10.956;2023-02-11T01:44:49;16.10;48.20
67899;DHT22;54699;51.796;10.956;2023-02-11T01:47:16;16.10;48.20
67899;DHT22;54699;51.796;10.956;2023-02-11T01:49:45;16.10;48.20
67899;DHT22;54699;51.796;10.956;2023-02-11T01:52:16;16.00;48.10
67899;DHT22;54699;51.796;10.956;2023-02-11T01:54:47;16.10;48.20
67899;DHT22;54699;51.796;10.956;2023-02-11T01:57:36;16.00;48.40
67899;DHT22;54699;51.796;10.956;2023-02-11T02:00:07;16.00;48.00
67899;DHT22;54699;51.796;10.956;2023-02-11T02:02:39;16.00;48.10
67899;DHT22;54699;51.796;10.956;2023-02-11T02:05:18;16.10;48.20
67899;DHT22;54699;51.796;10.956;2023-02-11T02:07:51;16.00;48.10
67899;DHT22;54699;51.796;10.956;2023-02-11T02:10:24;16.00;48.20
67899;DHT22;54699;51.796;10.956;2023-02-11T02:12:55;16.00;48.20
67899;DHT22;54699;51.796;10.956;2023-02-11T02:15:23;16.00;48.10
67899;DHT22;54699;51.796;10.956;2023-02-11T02:17:56;16.00;48.10
67899;DHT22;54699;51.796;10.956;2023-02-11T02:20:38;16.00;48.20
67899;DHT22;54699;51.796;10.956;2023-02-11T02:23:34;16.00;48.30
67899;DHT22;54699;51.796;10.956;2023-02-11T02:26:16;16.00;48.10
67899;DHT22;54699;51.796;10.956;2023-02-11T02:29:03;16.00;48.10
67899;DHT22;54699;51.796;10.956;2023-02-11T02:31:51;16.00;48.10
67899;DHT22;54699;51.796;10.956;2023-02-11T02:34:29;16.00;48.10
67899;DHT22;54699;51.796;10.956;2023-02-11T02:37:03;16.00;48.20
67899;DHT22;54699;51.796;10.956;2023-02-11T02:39:35;16.00;48.00
67899;DHT22;54699;51.796;10.956;2023-02-11T02:42:02;16.00;48.10
67899;DHT22;54699;51.796;10.956;2023-02-11T02:44:30;16.00;48.10
67899;DHT22;54699;51.796;10.956;2023-02-11T02:46:58;16.00;48.10
67899;DHT22;54699;51.796;10.956;2023-02-11T02:49:25;16.00;48.20
67899;DHT22;54699;51.796;10.956;2023-02-11T02:55:01;16.00;48.10
67899;DHT22;54699;51.796;10.956;2023-02-11T02:57:37;16.00;48.10
67899;DHT22;54699;51.796;10.956;2023-02-11T03:00:16;16.00;48.10
67899;DHT22;54699;51.796;10.956;2023-02-11T03:02:59;16.00;48.10
67899;DHT22;54699;51.796;10.956;2023-02-11T03:05:37;16.00;48.20
67899;DHT22;54699;51.796;10.956;2023-02-11T03:08:15;16.00;48.20
67899;DHT22;54699;51.796;10.956;2023-02-11T03:10:49;16.00;48.20
67899;DHT22;54699;51.796;10.956;2023-02-11T03:13:18;16.10;48.10
67899;DHT22;54699;51.796;10.956;2023-02-11T03:15:50;16.00;48.10
67899;DHT22;54699;51.796;10.956;2023-02-11T03:18:19;16.00;48.10
67899;DHT22;54699;51.796;10.956;2023-02-11T03:20:50;16.00;48.20
67899;DHT22;54699;51.796;10.956;2023-02-11T03:23:22;16.00;48.20
67899;DHT22;54699;51.796;10.956;2023-02-11T03:25:54;16.00;48.00
67899;DHT22;54699;51.796;10.956;2023-02-11T03:28:28;16.00;48.10
67899;DHT22;54699;51.796;10.956;2023-02-11T03:31:10;16.00;48.10
67899;DHT22;54699;51.796;10.956;2023-02-11T03:33:40;16.00;48.20
67899;DHT22;54699;51.796;10.956;2023-02-11T03:36:18;16.00;48.10
67899;DHT22;54699;51.796;10.956;2023-02-11T03:38:51;16.00;48.20
67899;DHT22;54699;51.796;10.956;2023-02-11T03:41:22;16.00;48.20
67899;DHT22;54699;51.796;10.956;2023-02-11T03:43:50;16.00;48.20
67899;DHT22;54699;51.796;10.956;2023-02-11T03:46:20;16.00;48.20
67899;DHT22;54699;51.796;10.956;2023-02-11T03:48:50;16.00;48.40
67899;DHT22;54699;51.796;10.956;2023-02-11T03:51:20;16.00;48.30
67899;DHT22;54699;51.796;10.956;2023-02-11T03:53:51;16.00;48.30
67899;DHT22;54699;51.796;10.956;2023-02-11T03:56:22;16.00;48.30
67899;DHT22;54699;51.796;10.956;2023-02-11T03:58:52;16.00;48.30
67899;DHT22;54699;51.796;10.956;2023-02-11T04:01:18;16.00;48.20
67899;DHT22;54699;51.796;10.956;2023-02-11T04:03:45;16.00;48.30
67899;DHT22;54699;51.796;10.956;2023-02-11T04:06:12;16.00;48.30
67899;DHT22;54699;51.796;10.956;2023-02-11T04:08:39;16.00;48.20
67899;DHT22;54699;51.796;10.956;2023-02-11T04:11:07;16.00;48.30
67899;DHT22;54699;51.796;10.956;2023-02-11T04:13:34;16.00;48.40
67899;DHT22;54699;51.796;10.956;2023-02-11T04:16:01;16.00;48.20
67899;DHT22;54699;51.796;10.956;2023-02-11T04:18:28;16.00;48.30
67899;DHT22;54699;51.796;10.956;2023-02-11T04:20:54;16.00;48.20
67899;DHT22;54699;51.796;10.956;2023-02-11T04:23:21;16.00;48.30
67899;DHT22;54699;51.796;10.956;2023-02-11T04:25:49;16.00;48.00
67899;DHT22;54699;51.796;10.956;2023-02-11T04:28:18;16.00;48.20
67899;DHT22;54699;51.796;10.956;2023-02-11T04:30:44;16.00;48.20
67899;DHT22;54699;51.796;10.956;2023-02-11T04:33:11;16.00;48.40
67899;DHT22;54699;51.796;10.956;2023-02-11T04:35:38;16.00;48.40
67899;DHT22;54699;51.796;10.956;2023-02-11T04:38:04;16.00;48.20
67899;DHT22;54699;51.796;10.956;2023-02-11T04:40:31;16.00;48.30
67899;DHT22;54699;51.796;10.956;2023-02-11T04:42:58;16.00;48.30
67899;DHT22;54699;51.796;10.956;2023-02-11T04:45:26;16.00;48.40
67899;DHT22;54699;51.796;10.956;2023-02-11T04:47:53;16.00;48.40
67899;DHT22;54699;51.796;10.956;2023-02-11T04:50:20;16.00;48.30
67899;DHT22;54699;51.796;10.956;2023-02-11T04:52:47;16.00;48.30
67899;DHT22;54699;51.796;10.956;2023-02-11T04:55:13;16.00;48.40
67899;DHT22;54699;51.796;10.956;2023-02-11T04:57:40;16.00;48.40
67899;DHT22;54699;51.796;10.956;2023-02-11T05:00:07;16.00;48.50
67899;DHT22;54699;51.796;10.956;2023-02-11T05:02:37;16.00;48.50
67899;DHT22;54699;51.796;10.956;2023-02-11T05:05:04;16.00;48.40
67899;DHT22;54699;51.796;10.956;2023-02-11T05:07:31;16.00;48.40
67899;DHT22;54699;51.796;10.956;2023-02-11T05:09:57;16.00;48.50
67899;DHT22;54699;51.796;10.956;2023-02-11T05:12:24;16.00;48.50
67899;DHT22;54699;51.796;10.956;2023-02-11T05:14:51;16.00;48.50
67899;DHT22;54699;51.796;10.956;2023-02-11T05:17:18;16.00;48.40
67899;DHT22;54699;51.796;10.956;2023-02-11T05:19:46;16.00;48.50
67899;DHT22;54699;51.796;10.956;2023-02-11T05:22:12;16.00;48.40
67899;DHT22;54699;51.796;10.956;2023-02-11T05:24:39;16.00;48.40
67899;DHT22;54699;51.796;10.956;2023-02-11T05:27:06;16.00;48.50
67899;DHT22;54699;51.796;10.956;2023-02-11T05:29:33;15.90;48.40
67899;DHT22;54699;51.796;10.956;2023-02-11T05:31:59;16.00;48.50
67899;DHT22;54699;51.796;10.956;2023-02-11T05:34:26;16.00;48.30
67899;DHT22;54699;51.796;10.956;2023-02-11T05:36:54;16.00;48.50
67899;DHT22;54699;51.796;10.956;2023-02-11T05:39:21;16.00;48.50
67899;DHT22;54699;51.796;10.956;2023-02-11T05:41:47;16.00;48.50
67899;DHT22;54699;51.796;10.956;2023-02-11T05:44:14;16.00;49.40
67899;DHT22;54699;51.796;10.956;2023-02-11T05:46:41;16.00;48.60
67899;DHT22;54699;51.796;10.956;2023-02-11T05:49:08;15.90;48.40
67899;DHT22;54699;51.796;10.956;2023-02-11T05:51:34;16.00;48.50
67899;DHT22;54699;51.796;10.956;2023-02-11T05:54:02;16.00;48.50
67899;DHT22;54699;51.796;10.956;2023-02-11T05:56:29;15.90;48.50
67899;DHT22;54699;51.796;10.956;2023-02-11T05:58:57;16.00;48.50
67899;DHT22;54699;51.796;10.956;2023-02-11T06:01:24;16.00;48.60
67899;DHT22;54699;51.796;10.956;2023-02-11T06:03:50;16.00;48.50
67899;DHT22;54699;51.796;10.956;2023-02-11T06:06:17;16.00;48.50
67899;DHT22;54699;51.796;10.956;2023-02-11T06:08:44;15.90;48.50
67899;DHT22;54699;51.796;10.956;2023-02-11T06:11:12;16.00;48.50
67899;DHT22;54699;51.796;10.956;2023-02-11T06:13:40;16.00;48.60
67899;DHT22;54699;51.796;10.956;2023-02-11T06:16:07;16.00;48.50
67899;DHT22;54699;51.796;10.956;2023-02-11T06:18:33;16.00;48.50
67899;DHT22;54699;51.796;10.956;2023-02-11T06:21:00;15.90;48.60
67899;DHT22;54699;51.796;10.956;2023-02-11T06:23:27;16.00;48.40
67899;DHT22;54699;51.796;10.956;2023-02-11T06:25:53;15.90;48.40
67899;DHT22;54699;51.796;10.956;2023-02-11T06:28:21;16.00;48.60
67899;DHT22;54699;51.796;10.956;2023-02-11T06:30:48;15.90;48.70
67899;DHT22;54699;51.796;10.956;2023-02-11T06:33:15;16.00;48.50
67899;DHT22;54699;51.796;10.956;2023-02-11T06:35:41;15.90;48.70
67899;DHT22;54699;51.796;10.956;2023-02-11T06:38:08;15.90;48.50
67899;DHT22;54699;51.796;10.956;2023-02-11T06:40:35;15.90;48.70
67899;DHT22;54699;51.796;10.956;2023-02-11T06:43:01;16.00;48.70
67899;DHT22;54699;51.796;10.956;2023-02-11T06:45:29;15.90;48.70
67899;DHT22;54699;51.796;10.956;2023-02-11T06:47:56;15.90;48.50
67899;DHT22;54699;51.796;10.956;2023-02-11T06:50:23;15.90;48.70
67899;DHT22;54699;51.796;10.956;2023-02-11T06:52:50;15.90;48.60
67899;DHT22;54699;51.796;10.956;2023-02-11T06:55:16;16.00;48.60
67899;DHT22;54699;51.796;10.956;2023-02-11T06:57:43;15.90;48.80
67899;DHT22;54699;51.796;10.956;2023-02-11T07:00:10;15.90;48.80
67899;DHT22;54699;51.796;10.956;2023-02-11T07:02:39;15.90;48.60
67899;DHT22;54699;51.796;10.956;2023-02-11T07:05:06;15.90;48.60
67899;DHT22;54699;51.796;10.956;2023-02-11T07:07:34;16.00;48.70
67899;DHT22;54699;51.796;10.956;2023-02-11T07:10:02;15.90;48.70
67899;DHT22;54699;51.796;10.956;2023-02-11T07:12:30;15.90;48.60
67899;DHT22;54699;51.796;10.956;2023-02-11T07:14:57;15.90;48.70
67899;DHT22;54699;51.796;10.956;2023-02-11T07:17:23;15.90;48.60
67899;DHT22;54699;51.796;10.956;2023-02-11T07:19:51;15.90;48.70
67899;DHT22;54699;51.796;10.956;2023-02-11T07:22:18;15.90;48.70
67899;DHT22;54699;51.796;10.956;2023-02-11T07:24:45;15.90;48.70
67899;DHT22;54699;51.796;10.956;2023-02-11T07:27:11;15.90;48.80
67899;DHT22;54699;51.796;10.956;2023-02-11T07:29:40;15.90;48.80
67899;DHT22;54699;51.796;10.956;2023-02-11T07:32:07;15.90;48.90
67899;DHT22;54699;51.796;10.956;2023-02-11T07:34:33;15.90;48.90
67899;DHT22;54699;51.796;10.956;2023-02-11T07:37:01;15.90;49.00
67899;DHT22;54699;51.796;10.956;2023-02-11T07:39:28;15.90;48.90
67899;DHT22;54699;51.796;10.956;2023-02-11T07:41:55;15.90;48.90
67899;DHT22;54699;51.796;10.956;2023-02-11T07:44:22;15.90;49.00
67899;DHT22;54699;51.796;10.956;2023-02-11T07:46:49;15.90;48.80
67899;DHT22;54699;51.796;10.956;2023-02-11T07:49:16;15.90;49.10
67899;DHT22;54699;51.796;10.956;2023-02-11T07:51:42;15.90;49.10
67899;DHT22;54699;51.796;10.956;2023-02-11T07:54:11;15.90;49.00
67899;DHT22;54699;51.796;10.956;2023-02-11T07:56:38;15.90;48.90
67899;DHT22;54699;51.796;10.956;2023-02-11T07:59:04;15.90;49.10
67899;DHT22;54699;51.796;10.956;2023-02-11T08:01:31;16.00;49.00
67899;DHT22;54699;51.796;10.956;2023-02-11T08:03:59;15.90;48.90
67899;DHT22;54699;51.796;10.956;2023-02-11T08:06:28;15.90;49.10
67899;DHT22;54699;51.796;10.956;2023-02-11T08:08:56;16.00;49.20
67899;DHT22;54699;51.796;10.956;2023-02-11T08:11:25;15.90;49.10
67899;DHT22;54699;51.796;10.956;2023-02-11T08:13:54;15.90;49.20
67899;DHT22;54699;51.796;10.956;2023-02-11T08:16:22;15.90;49.30
67899;DHT22;54699;51.796;10.956;2023-02-11T08:18:51;15.90;49.30
67899;DHT22;54699;51.796;10.956;2023-02-11T08:21:18;16.00;49.30
67899;DHT22;54699;51.796;10.956;2023-02-11T08:23:46;15.90;49.30
67899;DHT22;54699;51.796;10.956;2023-02-11T08:26:15;16.00;49.20
67899;DHT22;54699;51.796;10.956;2023-02-11T08:28:45;15.90;49.10
67899;DHT22;54699;51.796;10.956;2023-02-11T08:31:14;15.90;49.30
67899;DHT22;54699;51.796;10.956;2023-02-11T08:33:42;16.00;49.20
67899;DHT22;54699;51.796;10.956;2023-02-11T08:36:10;15.90;49.40
67899;DHT22;54699;51.796;10.956;2023-02-11T08:38:37;16.00;49.40
67899;DHT22;54699;51.796;10.956;2023-02-11T08:41:04;16.00;49.50
67899;DHT22;54699;51.796;10.956;2023-02-11T08:43:31;15.90;49.40
67899;DHT22;54699;51.796;10.956;2023-02-11T08:45:59;16.00;49.60
67899;DHT22;54699;51.796;10.956;2023-02-11T08:48:27;16.00;49.50
67899;DHT22;54699;51.796;10.956;2023-02-11T08:50:54;16.00;49.50
67899;DHT22;54699;51.796;10.956;2023-02-11T08:53:22;16.00;49.50
67899;DHT22;54699;51.796;10.956;2023-02-11T08:55:49;16.00;49.60
67899;DHT22;54699;51.796;10.956;2023-02-11T08:58:17;16.00;49.60
67899;DHT22;54699;51.796;10.956;2023-02-11T09:00:45;16.00;49.60
67899;DHT22;54699;51.796;10.956;2023-02-11T09:03:13;16.00;49.60
67899;DHT22;54699;51.796;10.956;2023-02-11T09:05:41;16.00;49.70
67899;DHT22;54699;51.796;10.956;2023-02-11T09:08:08;16.00;49.60
67899;DHT22;54699;51.796;10.956;2023-02-11T09:10:35;16.00;49.70
67899;DHT22;54699;51.796;10.956;2023-02-11T09:13:02;16.00;49.80
67899;DHT22;54699;51.796;10.956;2023-02-11T09:15:29;16.00;49.80
67899;DHT22;54699;51.796;10.956;2023-02-11T09:17:56;16.00;49.90
67899;DHT22;54699;51.796;10.956;2023-02-11T09:20:24;16.00;49.70
67899;DHT22;54699;51.796;10.956;2023-02-11T09:22:52;16.00;49.90
67899;DHT22;54699;51.796;10.956;2023-02-11T09:25:19;16.00;49.90
67899;DHT22;54699;51.796;10.956;2023-02-11T09:27:46;15.90;49.80
67899;DHT22;54699;51.796;10.956;2023-02-11T09:30:13;16.00;50.10
67899;DHT22;54699;51.796;10.956;2023-02-11T09:32:40;16.00;50.10
67899;DHT22;54699;51.796;10.956;2023-02-11T09:35:07;16.00;50.30
67899;DHT22;54699;51.796;10.956;2023-02-11T09:37:35;16.00;50.50
67899;DHT22;54699;51.796;10.956;2023-02-11T09:40:02;16.00;50.40
67899;DHT22;54699;51.796;10.956;2023-02-11T09:45:16;16.00;50.80
67899;DHT22;54699;51.796;10.956;2023-02-11T09:47:47;16.00;50.50
67899;DHT22;54699;51.796;10.956;2023-02-11T09:50:17;16.00;51.00
67899;DHT22;54699;51.796;10.956;2023-02-11T09:52:50;16.00;51.00
67899;DHT22;54699;51.796;10.956;2023-02-11T09:55:21;16.00;51.00
67899;DHT22;54699;51.796;10.956;2023-02-11T09:57:51;16.00;51.30
67899;DHT22;54699;51.796;10.956;2023-02-11T10:00:19;16.00;51.30
67899;DHT22;54699;51.796;10.956;2023-02-11T10:02:57;16.00;51.60
67899;DHT22;54699;51.796;10.956;2023-02-11T10:05:38;16.00;51.20
67899;DHT22;54699;51.796;10.956;2023-02-11T10:08:17;16.00;51.60
67899;DHT22;54699;51.796;10.956;2023-02-11T10:10:52;16.00;51.70
67899;DHT22;54699;51.796;10.956;2023-02-11T10:13:31;16.10;51.60
67899;DHT22;54699;51.796;10.956;2023-02-11T10:16:12;16.10;51.90
67899;DHT22;54699;51.796;10.956;2023-02-11T10:18:55;16.10;51.70
67899;DHT22;54699;51.796;10.956;2023-02-11T10:21:34;16.10;51.70
67899;DHT22;54699;51.796;10.956;2023-02-11T10:24:13;16.10;51.70
67899;DHT22;54699;51.796;10.956;2023-02-11T10:26:42;16.10;52.40
67899;DHT22;54699;51.796;10.956;2023-02-11T10:29:11;16.10;52.00
67899;DHT22;54699;51.796;10.956;2023-02-11T10:31:51;16.10;52.50
67899;DHT22;54699;51.796;10.956;2023-02-11T10:34:19;16.20;52.20
67899;DHT22;54699;51.796;10.956;2023-02-11T10:36:46;16.20;51.80
67899;DHT22;54699;51.796;10.956;2023-02-11T10:39:14;16.20;51.90
67899;DHT22;54699;51.796;10.956;2023-02-11T10:41:44;16.10;52.00
67899;DHT22;54699;51.796;10.956;2023-02-11T10:44:18;16.10;51.90
67899;DHT22;54699;51.796;10.956;2023-02-11T10:46:49;16.20;52.10
67899;DHT22;54699;51.796;10.956;2023-02-11T10:49:34;16.20;52.50
67899;DHT22;54699;51.796;10.956;2023-02-11T10:52:11;16.20;52.20
67899;DHT22;54699;51.796;10.956;2023-02-11T10:54:41;16.20;52.60
67899;DHT22;54699;51.796;10.956;2023-02-11T10:57:21;16.10;52.70
67899;DHT22;54699;51.796;10.956;2023-02-11T10:59:54;16.20;52.90
67899;DHT22;54699;51.796;10.956;2023-02-11T11:02:26;16.20;53.40
67899;DHT22;54699;51.796;10.956;2023-02-11T11:04:57;16.20;53.10
67899;DHT22;54699;51.796;10.956;2023-02-11T11:07:25;16.20;53.00
67899;DHT22;54699;51.796;10.956;2023-02-11T11:09:55;16.20;53.10
67899;DHT22;54699;51.796;10.956;2023-02-11T11:12:32;16.20;52.50
67899;DHT22;54699;51.796;10.956;2023-02-11T11:15:02;16.20;51.90
67899;DHT22;54699;51.796;10.956;2023-02-11T11:17:40;16.20;51.60
67899;DHT22;54699;51.796;10.956;2023-02-11T11:20:15;16.20;51.50
67899;DHT22;54699;51.796;10.956;2023-02-11T11:22:46;16.20;51.10
67899;DHT22;54699;51.796;10.956;2023-02-11T11:25:26;16.20;50.90
67899;DHT22;54699;51.796;10.956;2023-02-11T11:27:55;16.20;50.70
67899;DHT22;54699;51.796;10.956;2023-02-11T11:30:25;16.20;50.50
67899;DHT22;54699;51.796;10.956;2023-02-11T11:32:56;16.30;50.60
67899;DHT22;54699;51.796;10.956;2023-02-11T11:35:25;16.30;50.70
67899;DHT22;54699;51.796;10.956;2023-02-11T11:37:54;16.30;50.50
67899;DHT22;54699;51.796;10.956;2023-02-11T11:40:25;16.30;49.80
67899;DHT22;54699;51.796;10.956;2023-02-11T11:43:08;16.30;49.90
67899;DHT22;54699;51.796;10.956;2023-02-11T11:45:54;16.40;50.10
67899;DHT22;54699;51.796;10.956;2023-02-11T11:48:22;16.40;49.70
67899;DHT22;54699;51.796;10.956;2023-02-11T11:50:52;16.40;49.70
67899;DHT22;54699;51.796;10.956;2023-02-11T11:53:22;16.30;49.80
67899;DHT22;54699;51.796;10.956;2023-02-11T11:55:58;16.40;49.80
67899;DHT22;54699;51.796;10.956;2023-02-11T11:58:28;16.40;50.20
67899;DHT22;54699;51.796;10.956;2023-02-11T12:00:58;16.40;49.80
67899;DHT22;54699;51.796;10.956;2023-02-11T12:06:38;16.40;50.30
67899;DHT22;54699;51.796;10.956;2023-02-11T12:09:11;16.40;50.00
67899;DHT22;54699;51.796;10.956;2023-02-11T12:12:00;16.50;49.70
67899;DHT22;54699;51.796;10.956;2023-02-11T12:14:38;16.40;50.20
67899;DHT22;54699;51.796;10.956;2023-02-11T12:17:17;16.50;49.80
67899;DHT22;54699;51.796;10.956;2023-02-11T12:20:03;16.50;49.90
67899;DHT22;54699;51.796;10.956;2023-02-11T12:22:44;16.50;49.90
67899;DHT22;54699;51.796;10.956;2023-02-11T12:25:24;16.50;49.90
67899;DHT22;54699;51.796;10.956;2023-02-11T12:27:59;16.50;50.10
67899;DHT22;54699;51.796;10.956;2023-02-11T12:30:38;16.50;50.30
67899;DHT22;54699;51.796;10.956;2023-02-11T12:33:22;16.50;50.10
67899;DHT22;54699;51.796;10.956;2023-02-11T12:36:00;16.50;49.70
67899;DHT22;54699;51.796;10.956;2023-02-11T12:38:37;16.60;49.40
67899;DHT22;54699;51.796;10.956;2023-02-11T12:41:22;16.50;49.20
67899;DHT22;54699;51.796;10.956;2023-02-11T12:44:19;16.60;49.10
67899;DHT22;54699;51.796;10.956;2023-02-11T12:46:56;16.60;49.30
67899;DHT22;54699;51.796;10.956;2023-02-11T12:49:35;16.60;49.30
67899;DHT22;54699;51.796;10.956;2023-02-11T12:52:17;16.60;49.50
67899;DHT22;54699;51.796;10.956;2023-02-11T12:54:58;16.60;49.30
67899;DHT22;54699;51.796;10.956;2023-02-11T12:57:29;16.60;49.60
67899;DHT22;54699;51.796;10.956;2023-02-11T13:00:02;16.60;49.60
67899;DHT22;54699;51.796;10.956;2023-02-11T13:02:34;16.70;49.60
67899;DHT22;54699;51.796;10.956;2023-02-11T13:05:11;16.70;49.50
67899;DHT22;54699;51.796;10.956;2023-02-11T13:07:47;16.70;49.50
67899;DHT22;54699;51.796;10.956;2023-02-11T13:10:24;16.70;49.30
67899;DHT22;54699;51.796;10.956;2023-02-11T13:12:55;16.70;49.20
67899;DHT22;54699;51.796;10.956;2023-02-11T13:15:44;16.70;49.20
67899;DHT22;54699;51.796;10.956;2023-02-11T13:18:16;16.70;49.40
67899;DHT22;54699;51.796;10.956;2023-02-11T13:20:55;16.70;49.40
67899;DHT22;54699;51.796;10.956;2023-02-11T13:23:28;16.70;49.50
67899;DHT22;54699;51.796;10.956;2023-02-11T13:26:06;16.70;49.70
67899;DHT22;54699;51.796;10.956;2023-02-11T13:28:40;16.70;49.60
67899;DHT22;54699;51.796;10.956;2023-02-11T13:31:13;16.70;49.70
67899;DHT22;54699;51.796;10.956;2023-02-11T13:33:41;16.60;49.80
67899;DHT22;54699;51.796;10.956;2023-02-11T13:36:13;16.70;49.80
67899;DHT22;54699;51.796;10.956;2023-02-11T13:38:55;16.70;50.00
67899;DHT22;54699;51.796;10.956;2023-02-11T13:41:28;16.70;49.90
67899;DHT22;54699;51.796;10.956;2023-02-11T13:43:58;16.70;50.00
67899;DHT22;54699;51.796;10.956;2023-02-11T13:46:29;16.70;50.10
67899;DHT22;54699;51.796;10.956;2023-02-11T13:49:17;16.70;50.10
67899;DHT22;54699;51.796;10.956;2023-02-11T13:51:46;16.70;50.30
67899;DHT22;54699;51.796;10.956;2023-02-11T13:54:22;16.70;50.00
67899;DHT22;54699;51.796;10.956;2023-02-11T13:59:57;16.70;49.90
67899;DHT22;54699;51.796;10.956;2023-02-11T14:02:28;16.70;50.00
67899;DHT22;54699;51.796;10.956;2023-02-11T14:08:18;16.70;49.90
67899;DHT22;54699;51.796;10.956;2023-02-11T14:11:08;16.70;50.00
67899;DHT22;54699;51.796;10.956;2023-02-11T14:14:11;16.70;49.90
67899;DHT22;54699;51.796;10.956;2023-02-11T14:19:49;16.70;50.00
67899;DHT22;54699;51.796;10.956;2023-02-11T14:22:18;16.70;50.00
67899;DHT22;54699;51.796;10.956;2023-02-11T14:24:51;16.80;50.10
67899;DHT22;54699;51.796;10.956;2023-02-11T14:30:23;16.70;50.50
67899;DHT22;54699;51.796;10.956;2023-02-11T14:36:10;16.80;50.00
67899;DHT22;54699;51.796;10.956;2023-02-11T14:38:51;16.80;49.80
67899;DHT22;54699;51.796;10.956;2023-02-11T14:41:28;16.80;49.80
67899;DHT22;54699;51.796;10.956;2023-02-11T14:44:00;16.80;49.60
67899;DHT22;54699;51.796;10.956;2023-02-11T14:46:32;16.80;49.60
67899;DHT22;54699;51.796;10.956;2023-02-11T14:48:59;16.90;49.60
67899;DHT22;54699;51.796;10.956;2023-02-11T14:51:29;16.90;49.80
67899;DHT22;54699;51.796;10.956;2023-02-11T14:53:57;16.90;49.90
67899;DHT22;54699;51.796;10.956;2023-02-11T14:56:27;16.90;49.80
67899;DHT22;54699;51.796;10.956;2023-02-11T14:58:56;16.90;49.90
67899;DHT22;54699;51.796;10.956;2023-02-11T15:01:28;16.90;49.70
67899;DHT22;54699;51.796;10.956;2023-02-11T15:03:59;16.90;49.70
67899;DHT22;54699;51.796;10.956;2023-02-11T15:06:28;16.90;49.90
67899;DHT22;54699;51.796;10.956;2023-02-11T15:08:58;16.90;49.80
67899;DHT22;54699;51.796;10.956;2023-02-11T15:11:28;16.90;49.90
67899;DHT22;54699;51.796;10.956;2023-02-11T15:13:58;16.90;50.00
67899;DHT22;54699;51.796;10.956;2023-02-11T15:16:32;16.90;50.10
67899;DHT22;54699;51.796;10.956;2023-02-11T15:19:02;16.80;50.10
67899;DHT22;54699;51.796;10.956;2023-02-11T15:21:31;16.90;50.40
67899;DHT22;54699;51.796;10.956;2023-02-11T15:24:02;16.80;50.50
67899;DHT22;54699;51.796;10.956;2023-02-11T15:26:31;16.80;50.60
67899;DHT22;54699;51.796;10.956;2023-02-11T15:28:58;16.80;50.80
67899;DHT22;54699;51.796;10.956;2023-02-11T15:31:26;16.80;50.70
67899;DHT22;54699;51.796;10.956;2023-02-11T15:33:53;16.80;51.00
67899;DHT22;54699;51.796;10.956;2023-02-11T15:36:23;16.80;50.90
67899;DHT22;54699;51.796;10.956;2023-02-11T15:41:43;16.80;51.40
67899;DHT22;54699;51.796;10.956;2023-02-11T15:44:25;16.80;51.20
67899;DHT22;54699;51.796;10.956;2023-02-11T15:46:53;16.80;51.50
67899;DHT22;54699;51.796;10.956;2023-02-11T15:49:20;16.80;51.50
67899;DHT22;54699;51.796;10.956;2023-02-11T15:51:50;16.80;51.90
67899;DHT22;54699;51.796;10.956;2023-02-11T15:54:19;16.80;51.80
67899;DHT22;54699;51.796;10.956;2023-02-11T15:56:48;16.80;52.00
67899;DHT22;54699;51.796;10.956;2023-02-11T15:59:17;16.80;52.30
67899;DHT22;54699;51.796;10.956;2023-02-11T16:01:46;16.80;52.40
67899;DHT22;54699;51.796;10.956;2023-02-11T16:04:14;16.80;52.40